Back to Top

Language: 

My Weather Underground Personal Weather Station Historical Data with Graphs...

Delerius Weather Station Historical Data
Daily Summary for September 13, 2017 Units:  Metric    English   Both
« Previous Day
Next Day »
Daily Weekly Monthly Yearly Custom
  High: Low: Average:
Temperature: 15.2 °C 8.5 °C 12.1 °C
Dew Point: 11.8 °C 6.7 °C 8.9 °C
Humidity: 96 % 64 % 81 %
Wind Speed: 41.8 km/h 1.6 km/h 19.6 km/h
Wind Gust: 72.4 km/h - -
Wind:- - West
Pressure: 998.9 hPa 982.3 hPa -
Precipitation: 0.51 mm    
Historical Graphs
 
 
Tabular Data for September 13, 2017
Time Temperature Dew Point Pressure Wind Wind Speed Wind Gust Humidity Rainfall Rate (Hourly) solar Conditions
00:00 11.3 °C 10.7 °C 986.7 hPa South 12.9 km/h 32.2 km/h 96 % 0 mm 0 W/m2
00:05 11.4 °C 10.8 °C 986.3 hPa South 14.5 km/h 32.2 km/h 96 % 0 mm 0 W/m2
00:10 11.5 °C 10.9 °C 986.3 hPa South 12.9 km/h 25.7 km/h 96 % 0 mm 0 W/m2
00:15 11.6 °C 11 °C 986 hPa South 14.5 km/h 25.7 km/h 96 % 0 mm 0 W/m2
00:20 11.7 °C 11.1 °C 985.7 hPa South 14.5 km/h 25.7 km/h 96 % 0 mm 0 W/m2
00:25 11.8 °C 11 °C 985.7 hPa South 12.9 km/h 30.6 km/h 95 % 0 mm 0 W/m2
00:30 11.9 °C 11.1 °C 985.3 hPa South 14.5 km/h 32.2 km/h 95 % 0 mm 0 W/m2
00:35 11.9 °C 11.1 °C 985.3 hPa South 16.1 km/h 32.2 km/h 95 % 0 mm 0 W/m2
00:39 12.1 °C 11.3 °C 985.3 hPa South 14.5 km/h 29 km/h 95 % 0 mm 0 W/m2
00:44 12.1 °C 11.3 °C 985 hPa SSW 12.9 km/h 22.5 km/h 95 % 0 mm 0 W/m2
00:49 12.2 °C 11.4 °C 984.6 hPa SSW 12.9 km/h 25.7 km/h 95 % 0 mm 0 W/m2
00:54 12.3 °C 11.5 °C 984.6 hPa SSW 14.5 km/h 25.7 km/h 95 % 0 mm 0 W/m2
00:59 12.4 °C 11.6 °C 984.3 hPa SSW 16.1 km/h 29 km/h 95 % 0 mm 0 W/m2
01:04 12.6 °C 11.7 °C 984.3 hPa SW 19.3 km/h 37 km/h 94 % 0 mm 0 W/m2
01:09 12.7 °C 11.8 °C 984 hPa SW 19.3 km/h 40.2 km/h 94 % 0 mm 0 W/m2
01:14 12.9 °C 11.6 °C 984.3 hPa SW 19.3 km/h 40.2 km/h 92 % 0 mm 0 W/m2
01:19 12.9 °C 11.6 °C 984 hPa SW 19.3 km/h 33.8 km/h 92 % 0 mm 0 W/m2
01:24 12.9 °C 11.4 °C 984 hPa SW 19.3 km/h 35.4 km/h 91 % 0 mm 0 W/m2
01:29 13 °C 11.4 °C 983.6 hPa SW 20.9 km/h 35.4 km/h 90 % 0 mm 0 W/m2
01:34 13 °C 11.4 °C 983.6 hPa SW 17.7 km/h 35.4 km/h 90 % 0 mm 0 W/m2
01:39 13 °C 11.2 °C 983.6 hPa SW 17.7 km/h 32.2 km/h 89 % 0 mm 0 W/m2
01:44 13.1 °C 11.3 °C 983.3 hPa SW 20.9 km/h 35.4 km/h 89 % 0 mm 0 W/m2
01:49 13.1 °C 11.2 °C 983.6 hPa SW 19.3 km/h 37 km/h 88 % 0 mm 0 W/m2
01:54 13.1 °C 11.2 °C 983.6 hPa SW 17.7 km/h 37 km/h 88 % 0 mm 0 W/m2
01:59 13.1 °C 11.2 °C 983.3 hPa SW 16.1 km/h 30.6 km/h 88 % 0 mm 0 W/m2
02:04 13 °C 11.1 °C 983.3 hPa SW 14.5 km/h 30.6 km/h 88 % 0 mm 0 W/m2
02:09 13 °C 11.1 °C 983 hPa SW 12.9 km/h 22.5 km/h 88 % 0 mm 0 W/m2
02:14 12.9 °C 10.9 °C 983 hPa SW 12.9 km/h 22.5 km/h 88 % 0 mm 0 W/m2
02:19 13 °C 11.1 °C 983 hPa SW 11.3 km/h 22.5 km/h 88 % 0 mm 0 W/m2
02:24 13.1 °C 11.2 °C 983 hPa SW 14.5 km/h 30.6 km/h 88 % 0 mm 0 W/m2
02:29 13.1 °C 11 °C 983 hPa SW 14.5 km/h 30.6 km/h 87 % 0 mm 0 W/m2
02:34 13.2 °C 11.1 °C 983 hPa SW 12.9 km/h 29 km/h 87 % 0 mm 0 W/m2
02:39 13.3 °C 11.2 °C 983 hPa SW 16.1 km/h 33.8 km/h 87 % 0 mm 0 W/m2
02:44 13.4 °C 11.1 °C 982.6 hPa SW 16.1 km/h 33.8 km/h 86 % 0 mm 0 W/m2
02:49 13.4 °C 11.3 °C 982.6 hPa SW 14.5 km/h 32.2 km/h 87 % 0 mm 0 W/m2
02:50 13.4 °C 11.3 °C 982.6 hPa SW 14.5 km/h 32.2 km/h 87 % 0 mm 0 W/m2
02:55 13.5 °C 11.4 °C 982.6 hPa SW 17.7 km/h 35.4 km/h 87 % 0 mm 0 W/m2
02:57 13.5 °C 11.4 °C 982.6 hPa SW 19.3 km/h 35.4 km/h 87 % 0 mm 0 W/m2
03:02 13.4 °C 11.4 °C 982.6 hPa WSW 19.3 km/h 35.4 km/h 88 % 0 mm 0 W/m2
03:07 13.4 °C 11.4 °C 982.3 hPa SW 19.3 km/h 35.4 km/h 88 % 0 mm 0 W/m2
03:12 13.4 °C 11.4 °C 982.6 hPa WSW 19.3 km/h 35.4 km/h 88 % 0 mm 0 W/m2
03:17 13.4 °C 11.4 °C 982.6 hPa WSW 19.3 km/h 38.6 km/h 88 % 0 mm 0 W/m2
03:22 13.5 °C 11.6 °C 982.6 hPa WSW 22.5 km/h 51.5 km/h 88 % 0 mm 0 W/m2
03:27 13.5 °C 11.6 °C 982.3 hPa WSW 22.5 km/h 51.5 km/h 88 % 0 mm 0 W/m2
03:32 13.3 °C 11.2 °C 982.6 hPa West 25.7 km/h 59.5 km/h 87 % 0 mm 0 W/m2
03:37 13 °C 10.6 °C 983 hPa West 37 km/h 66 km/h 85 % 0 mm 0 W/m2
03:42 12.6 °C 9.9 °C 983.6 hPa WNW 41.8 km/h 70.8 km/h 84 % 0 mm 0 W/m2
03:47 12.2 °C 9.8 °C 983.6 hPa WNW 40.2 km/h 70.8 km/h 85 % 0 mm 0 W/m2
03:52 11.9 °C 9.4 °C 984 hPa WNW 40.2 km/h 67.6 km/h 85 % 0.25 mm 0 W/m2
03:57 11.6 °C 9.3 °C 984.3 hPa WNW 41.8 km/h 72.4 km/h 86 % 0.25 mm 0 W/m2
04:02 11.3 °C 9.2 °C 984.6 hPa West 41.8 km/h 72.4 km/h 87 % 0.25 mm 0 W/m2
04:07 11.2 °C 9.1 °C 984.6 hPa West 37 km/h 64.4 km/h 87 % 0.25 mm 0 W/m2
04:13 11.2 °C 9.1 °C 985 hPa WNW 37 km/h 67.6 km/h 87 % 0.25 mm 0 W/m2
04:18 11.1 °C 9 °C 985.3 hPa WNW 37 km/h 67.6 km/h 87 % 0.25 mm 0 W/m2
04:20 11.1 °C 9 °C 985.3 hPa WNW 35.4 km/h 61.2 km/h 87 % 0.25 mm 0 W/m2
04:25 11.1 °C 9 °C 986 hPa WNW 37 km/h 57.9 km/h 87 % 0.25 mm 0 W/m2
04:28 11.1 °C 9 °C 986 hPa WNW 37 km/h 61.2 km/h 87 % 0.25 mm 0 W/m2
04:33 11.1 °C 9 °C 986.3 hPa WNW 33.8 km/h 61.2 km/h 87 % 0.25 mm 0 W/m2
04:38 11.1 °C 9 °C 986.3 hPa WNW 30.6 km/h 54.7 km/h 87 % 0.25 mm 0 W/m2
04:43 11.1 °C 8.8 °C 986.7 hPa WNW 33.8 km/h 57.9 km/h 86 % 0.25 mm 0 W/m2
04:48 11.1 °C 8.8 °C 987 hPa WNW 35.4 km/h 57.9 km/h 86 % 0.25 mm 0 W/m2
04:49 11.1 °C 8.8 °C 987 hPa WNW 35.4 km/h 57.9 km/h 86 % 0.25 mm 0 W/m2
04:54 11.1 °C 8.7 °C 987 hPa WNW 33.8 km/h 53.1 km/h 85 % 0 mm 0 W/m2
04:59 11.1 °C 8.7 °C 987 hPa WNW 32.2 km/h 56.3 km/h 85 % 0 mm 0 W/m2
05:04 10.9 °C 8.3 °C 987.4 hPa WNW 32.2 km/h 62.8 km/h 84 % 0 mm 0 W/m2
05:09 10.9 °C 8.1 °C 987.4 hPa WNW 32.2 km/h 62.8 km/h 83 % 0 mm 0 W/m2
05:14 10.8 °C 8 °C 987.7 hPa WNW 35.4 km/h 61.2 km/h 83 % 0 mm 0 W/m2
05:19 10.8 °C 8 °C 988 hPa WNW 33.8 km/h 61.2 km/h 83 % 0 mm 0 W/m2
05:24 10.7 °C 7.9 °C 988 hPa WNW 30.6 km/h 56.3 km/h 83 % 0 mm 0 W/m2
05:29 10.6 °C 7.8 °C 988.4 hPa WNW 33.8 km/h 56.3 km/h 83 % 0 mm 0 W/m2
05:34 10.6 °C 8 °C 988.7 hPa WNW 33.8 km/h 53.1 km/h 84 % 0 mm 0 W/m2
05:39 10.4 °C 8 °C 988.7 hPa WNW 33.8 km/h 61.2 km/h 85 % 0 mm 0 W/m2
05:44 10.2 °C 7.8 °C 989.1 hPa WNW 32.2 km/h 61.2 km/h 85 % 0 mm 0 W/m2
05:49 10.1 °C 7.9 °C 989.1 hPa WNW 30.6 km/h 51.5 km/h 86 % 0 mm 0 W/m2
05:54 10.1 °C 7.9 °C 989.1 hPa WNW 29 km/h 46.7 km/h 86 % 0 mm 0 W/m2
05:59 10 °C 7.6 °C 989.1 hPa WNW 27.4 km/h 48.3 km/h 85 % 0 mm 0 W/m2
06:04 10 °C 7.6 °C 989.4 hPa WNW 29 km/h 48.3 km/h 85 % 0 mm 0 W/m2
06:09 10 °C 7.6 °C 989.7 hPa WNW 30.6 km/h 48.3 km/h 85 % 0 mm 0 W/m2
06:10 10 °C 7.6 °C 989.7 hPa WNW 30.6 km/h 48.3 km/h 85 % 0 mm 0 W/m2
06:15 10 °C 7.6 °C 989.7 hPa WNW 27.4 km/h 48.3 km/h 85 % 0 mm 0 W/m2
06:20 10 °C 7.6 °C 989.7 hPa WNW 25.7 km/h 49.9 km/h 85 % 0 mm 0 W/m2
06:25 10.1 °C 7.7 °C 990.1 hPa WNW 24.1 km/h 49.9 km/h 85 % 0 mm 0 W/m2
06:30 10.1 °C 7.7 °C 990.1 hPa WNW 22.5 km/h 38.6 km/h 85 % 0 mm 0 W/m2
06:35 10.1 °C 7.9 °C 990.4 hPa WNW 24.1 km/h 43.5 km/h 86 % 0 mm 5 W/m2
06:40 10.1 °C 7.7 °C 990.4 hPa WNW 25.7 km/h 43.5 km/h 85 % 0 mm 7 W/m2
06:45 10.2 °C 7.9 °C 990.7 hPa WNW 27.4 km/h 45.1 km/h 86 % 0 mm 7 W/m2
06:50 10.2 °C 7.9 °C 990.7 hPa WNW 25.7 km/h 45.1 km/h 86 % 0 mm 9 W/m2
06:55 10.2 °C 7.9 °C 990.7 hPa WNW 27.4 km/h 46.7 km/h 86 % 0 mm 16 W/m2
07:00 10.1 °C 7.9 °C 991.1 hPa WNW 29 km/h 46.7 km/h 86 % 0 mm 16 W/m2
07:05 10.2 °C 7.9 °C 991.1 hPa WNW 30.6 km/h 56.3 km/h 86 % 0 mm 23 W/m2
07:10 10.2 °C 7.9 °C 991.1 hPa WNW 30.6 km/h 56.3 km/h 86 % 0 mm 21 W/m2
07:15 10.2 °C 7.9 °C 991.4 hPa WNW 29 km/h 49.9 km/h 86 % 0 mm 25 W/m2
07:20 10.2 °C 7.9 °C 991.4 hPa WNW 27.4 km/h 45.1 km/h 86 % 0 mm 23 W/m2
07:25 10.2 °C 7.9 °C 991.4 hPa WNW 25.7 km/h 45.1 km/h 86 % 0 mm 30 W/m2
07:30 10.3 °C 7.9 °C 991.4 hPa WNW 25.7 km/h 48.3 km/h 85 % 0 mm 32 W/m2
07:35 10.3 °C 7.9 °C 991.8 hPa WNW 25.7 km/h 48.3 km/h 85 % 0 mm 70 W/m2
07:40 10.5 °C 8.1 °C 991.8 hPa WNW 25.7 km/h 46.7 km/h 85 % 0 mm 28 W/m2
07:46 10.6 °C 8.2 °C 992.1 hPa WNW 25.7 km/h 45.1 km/h 85 % 0 mm 51 W/m2
07:51 10.6 °C 8.2 °C 992.1 hPa WNW 25.7 km/h 43.5 km/h 85 % 0 mm 47 W/m2
07:56 10.8 °C 8.2 °C 992.1 hPa WNW 27.4 km/h 45.1 km/h 84 % 0 mm 141 W/m2
08:01 10.9 °C 8.3 °C 991.8 hPa WNW 25.7 km/h 45.1 km/h 84 % 0 mm 257 W/m2
08:06 11.2 °C 8.6 °C 991.8 hPa WNW 22.5 km/h 40.2 km/h 84 % 0 mm 74 W/m2
08:11 11.2 °C 8.4 °C 992.1 hPa WNW 24.1 km/h 43.5 km/h 83 % 0 mm 44 W/m2
08:16 11.3 °C 8.5 °C 992.1 hPa WNW 27.4 km/h 45.1 km/h 83 % 0 mm 223 W/m2
08:21 11.5 °C 8.6 °C 992.1 hPa WNW 27.4 km/h 45.1 km/h 82 % 0 mm 237 W/m2
08:26 11.7 °C 8.6 °C 992.1 hPa WNW 30.6 km/h 56.3 km/h 81 % 0 mm 257 W/m2
08:31 11.8 °C 8.4 °C 992.4 hPa WNW 32.2 km/h 56.3 km/h 80 % 0 mm 264 W/m2
08:36 12 °C 8.4 °C 992.4 hPa West 30.6 km/h 53.1 km/h 79 % 0 mm 271 W/m2
08:41 12.1 °C 8.6 °C 992.4 hPa WNW 29 km/h 53.1 km/h 79 % 0 mm 288 W/m2
08:46 12.2 °C 8.7 °C 992.4 hPa WNW 30.6 km/h 51.5 km/h 79 % 0 mm 304 W/m2
08:51 12.3 °C 8.6 °C 992.4 hPa WNW 32.2 km/h 51.5 km/h 78 % 0 mm 318 W/m2
08:56 12.4 °C 8.7 °C 992.8 hPa WNW 32.2 km/h 48.3 km/h 78 % 0 mm 332 W/m2
09:01 12.5 °C 8.6 °C 992.8 hPa WNW 32.2 km/h 48.3 km/h 77 % 0 mm 343 W/m2
09:06 12.5 °C 8.6 °C 993.1 hPa WNW 33.8 km/h 61.2 km/h 77 % 0 mm 454 W/m2
09:11 12.5 °C 8.8 °C 993.1 hPa WNW 32.2 km/h 61.2 km/h 78 % 0 mm 408 W/m2
09:16 12.3 °C 8.6 °C 993.5 hPa WNW 33.8 km/h 56.3 km/h 78 % 0 mm 91 W/m2
09:21 12.1 °C 8.6 °C 993.5 hPa West 30.6 km/h 61.2 km/h 79 % 0 mm 144 W/m2
09:26 11.9 °C 8.6 °C 993.8 hPa West 29 km/h 61.2 km/h 80 % 0 mm 127 W/m2
09:31 11.8 °C 8.4 °C 993.8 hPa WNW 27.4 km/h 54.7 km/h 80 % 0 mm 181 W/m2
09:36 11.9 °C 8.7 °C 993.8 hPa WNW 24.1 km/h 46.7 km/h 81 % 0 mm 90 W/m2
09:41 12.2 °C 9.1 °C 993.8 hPa WNW 19.3 km/h 33.8 km/h 81 % 0 mm 462 W/m2
09:46 12.6 °C 9.2 °C 993.8 hPa WNW 19.3 km/h 32.2 km/h 80 % 0 mm 179 W/m2
09:51 12.8 °C 9.4 °C 994.1 hPa WNW 20.9 km/h 40.2 km/h 80 % 0 mm 127 W/m2
09:56 12.6 °C 9.6 °C 994.1 hPa WNW 20.9 km/h 46.7 km/h 82 % 0 mm 114 W/m2
10:01 12.2 °C 9.4 °C 994.1 hPa WNW 22.5 km/h 46.7 km/h 83 % 0 mm 100 W/m2
10:06 11.9 °C 9.4 °C 994.5 hPa WNW 19.3 km/h 35.4 km/h 85 % 0 mm 214 W/m2
10:11 11.9 °C 9.8 °C 994.5 hPa WNW 14.5 km/h 29 km/h 87 % 0 mm 148 W/m2
10:16 12.1 °C 9.8 °C 994.5 hPa WNW 14.5 km/h 32.2 km/h 86 % 0 mm 111 W/m2
10:21 12.3 °C 9.8 °C 994.5 hPa WNW 17.7 km/h 43.5 km/h 85 % 0 mm 548 W/m2
10:26 12.6 °C 9.9 °C 994.8 hPa WNW 17.7 km/h 43.5 km/h 84 % 0 mm 496 W/m2
10:31 12.8 °C 10 °C 994.8 hPa West 17.7 km/h 40.2 km/h 83 % 0 mm 385 W/m2
10:36 13.3 °C 9.9 °C 995.1 hPa West 17.7 km/h 40.2 km/h 80 % 0 mm 202 W/m2
10:42 13.4 °C 9.8 °C 995.1 hPa West 17.7 km/h 32.2 km/h 79 % 0 mm 309 W/m2
10:47 13.5 °C 9.6 °C 995.1 hPa West 19.3 km/h 38.6 km/h 77 % 0 mm 650 W/m2
10:52 13.7 °C 9.3 °C 995.1 hPa West 20.9 km/h 45.1 km/h 75 % 0 mm 666 W/m2
10:57 13.8 °C 9.1 °C 995.1 hPa West 22.5 km/h 45.1 km/h 73 % 0 mm 643 W/m2
11:02 14.1 °C 9.3 °C 995.1 hPa WNW 24.1 km/h 40.2 km/h 73 % 0 mm 726 W/m2
11:07 14.3 °C 9.1 °C 995.1 hPa WNW 22.5 km/h 48.3 km/h 71 % 0 mm 339 W/m2
11:12 14.3 °C 9.3 °C 995.5 hPa WNW 20.9 km/h 48.3 km/h 72 % 0 mm 176 W/m2
11:17 13.9 °C 9.7 °C 995.5 hPa WNW 19.3 km/h 32.2 km/h 76 % 0 mm 116 W/m2
11:22 13.2 °C 9.4 °C 995.5 hPa WNW 20.9 km/h 37 km/h 78 % 0.25 mm 287 W/m2
11:27 12.9 °C 9.2 °C 995.5 hPa WNW 20.9 km/h 37 km/h 78 % 0.25 mm 179 W/m2
11:32 12.9 °C 9.3 °C 995.5 hPa West 19.3 km/h 37 km/h 79 % 0.25 mm 120 W/m2
11:37 12.7 °C 8.8 °C 995.5 hPa West 20.9 km/h 41.8 km/h 77 % 0.25 mm 148 W/m2
11:42 12.5 °C 8.8 °C 995.5 hPa West 24.1 km/h 41.8 km/h 78 % 0.25 mm 141 W/m2
11:47 12.5 °C 8.9 °C 995.8 hPa West 22.5 km/h 40.2 km/h 79 % 0.25 mm 211 W/m2
11:52 12.5 °C 8.8 °C 995.8 hPa West 19.3 km/h 37 km/h 78 % 0.25 mm 230 W/m2
11:57 12.6 °C 8.9 °C 995.5 hPa West 19.3 km/h 37 km/h 78 % 0.25 mm 125 W/m2
12:02 12.6 °C 8.7 °C 995.8 hPa West 19.3 km/h 32.2 km/h 77 % 0.25 mm 162 W/m2
12:07 12.6 °C 9.1 °C 995.8 hPa West 17.7 km/h 30.6 km/h 79 % 0.25 mm 745 W/m2
12:12 13 °C 9.4 °C 995.8 hPa West 19.3 km/h 33.8 km/h 79 % 0.25 mm 798 W/m2
12:17 13.4 °C 9.4 °C 995.8 hPa West 20.9 km/h 33.8 km/h 77 % 0.25 mm 819 W/m2
12:22 13.9 °C 9.6 °C 995.8 hPa West 22.5 km/h 45.1 km/h 75 % 0 mm 724 W/m2
12:27 14.1 °C 8.9 °C 995.8 hPa West 25.7 km/h 45.1 km/h 71 % 0 mm 207 W/m2
12:32 14 °C 8.6 °C 996.2 hPa West 29 km/h 54.7 km/h 70 % 0 mm 766 W/m2
12:37 14.1 °C 9.1 °C 996.2 hPa West 29 km/h 54.7 km/h 72 % 0 mm 875 W/m2
12:42 14.2 °C 9.2 °C 996.2 hPa West 25.7 km/h 41.8 km/h 72 % 0 mm 207 W/m2
12:47 13.8 °C 9.2 °C 996.5 hPa West 22.5 km/h 41.8 km/h 74 % 0 mm 188 W/m2
12:52 13.4 °C 8.8 °C 996.2 hPa West 22.5 km/h 41.8 km/h 74 % 0 mm 209 W/m2
12:57 13 °C 9.1 °C 996.2 hPa West 22.5 km/h 37 km/h 77 % 0 mm 784 W/m2
13:02 13.2 °C 9.6 °C 996.2 hPa West 19.3 km/h 33.8 km/h 79 % 0 mm 729 W/m2
13:07 13.7 °C 9.7 °C 996.2 hPa West 19.3 km/h 32.2 km/h 77 % 0 mm 749 W/m2
13:12 14.2 °C 10 °C 996.2 hPa West 20.9 km/h 35.4 km/h 76 % 0 mm 814 W/m2
13:17 14.4 °C 9.6 °C 996.5 hPa West 24.1 km/h 40.2 km/h 73 % 0 mm 814 W/m2
13:22 14.7 °C 9.7 °C 996.5 hPa West 24.1 km/h 40.2 km/h 72 % 0 mm 763 W/m2
13:27 14.7 °C 9.3 °C 996.5 hPa West 24.1 km/h 43.5 km/h 70 % 0 mm 174 W/m2
13:32 14.4 °C 9.6 °C 996.5 hPa West 25.7 km/h 43.5 km/h 73 % 0 mm 780 W/m2
13:38 14.4 °C 9.2 °C 996.5 hPa West 25.7 km/h 43.5 km/h 71 % 0 mm 288 W/m2
13:43 14.1 °C 9.1 °C 996.5 hPa West 24.1 km/h 43.5 km/h 72 % 0 mm 302 W/m2
13:48 13.8 °C 9.1 °C 996.5 hPa West 20.9 km/h 37 km/h 73 % 0 mm 148 W/m2
13:53 13.4 °C 8.8 °C 996.5 hPa WSW 19.3 km/h 41.8 km/h 74 % 0 mm 160 W/m2
13:58 13.1 °C 8.8 °C 996.5 hPa WSW 20.9 km/h 41.8 km/h 75 % 0 mm 142 W/m2
14:03 12.8 °C 8.5 °C 996.5 hPa WSW 20.9 km/h 37 km/h 75 % 0 mm 146 W/m2
14:08 12.7 °C 8.6 °C 996.8 hPa West 20.9 km/h 37 km/h 76 % 0 mm 229 W/m2
14:13 12.8 °C 9.1 °C 996.8 hPa West 19.3 km/h 35.4 km/h 78 % 0 mm 287 W/m2
14:18 13.4 °C 9.4 °C 996.5 hPa West 17.7 km/h 37 km/h 77 % 0 mm 740 W/m2
14:23 13.7 °C 9.3 °C 996.5 hPa WSW 17.7 km/h 37 km/h 75 % 0 mm 759 W/m2
14:28 14.1 °C 9.7 °C 996.5 hPa WSW 17.7 km/h 29 km/h 75 % 0 mm 694 W/m2
14:33 14.6 °C 9.6 °C 996.5 hPa WSW 19.3 km/h 33.8 km/h 72 % 0 mm 570 W/m2
14:38 14.9 °C 9.7 °C 996.5 hPa West 20.9 km/h 33.8 km/h 71 % 0 mm 696 W/m2
14:43 15.1 °C 9.9 °C 996.5 hPa WSW 22.5 km/h 37 km/h 71 % 0 mm 786 W/m2
14:48 15.2 °C 9.6 °C 996.5 hPa WSW 24.1 km/h 41.8 km/h 69 % 0 mm 325 W/m2
14:53 15.2 °C 10.6 °C 996.8 hPa WSW 22.5 km/h 41.8 km/h 74 % 0 mm 165 W/m2
14:58 14.5 °C 9.9 °C 996.8 hPa West 20.9 km/h 40.2 km/h 74 % 0 mm 146 W/m2
15:03 13.8 °C 9.8 °C 996.8 hPa West 17.7 km/h 35.4 km/h 77 % 0 mm 109 W/m2
15:08 13.3 °C 9.7 °C 996.5 hPa West 16.1 km/h 29 km/h 79 % 0 mm 167 W/m2
15:13 13.3 °C 10.1 °C 996.5 hPa West 16.1 km/h 32.2 km/h 81 % 0 mm 148 W/m2
15:18 13.3 °C 9.9 °C 996.5 hPa WNW 17.7 km/h 32.2 km/h 80 % 0 mm 596 W/m2
15:25 13.8 °C 10 °C 996.5 hPa WSW 17.7 km/h 17.7 km/h 78 % 0 mm 552 W/m2
15:30 14 °C 9.2 °C 996.5 hPa West 29 km/h 40.2 km/h 73 % 0 mm 548 W/m2
15:35 14.3 °C 9.3 °C 996.5 hPa West 22.5 km/h 40.2 km/h 72 % 0 mm 564 W/m2
15:40 14.6 °C 9.2 °C 996.5 hPa WNW 19.3 km/h 33.8 km/h 70 % 0 mm 568 W/m2
15:45 14.9 °C 9.1 °C 996.5 hPa West 20.9 km/h 33.8 km/h 68 % 0 mm 533 W/m2
15:50 15.1 °C 8.8 °C 996.5 hPa West 20.9 km/h 35.4 km/h 66 % 0 mm 139 W/m2
15:55 14.8 °C 8.1 °C 996.8 hPa WNW 24.1 km/h 41.8 km/h 64 % 0 mm 142 W/m2
16:00 14.8 °C 8.5 °C 996.5 hPa WNW 20.9 km/h 41.8 km/h 66 % 0 mm 580 W/m2
16:05 15 °C 8.7 °C 996.5 hPa WNW 17.7 km/h 33.8 km/h 66 % 0 mm 214 W/m2
16:10 14.7 °C 8.6 °C 996.5 hPa WNW 16.1 km/h 33.8 km/h 67 % 0 mm 130 W/m2
16:15 14.3 °C 8.7 °C 996.8 hPa WNW 16.1 km/h 33.8 km/h 69 % 0 mm 200 W/m2
16:20 14.2 °C 8.6 °C 996.8 hPa West 14.5 km/h 29 km/h 69 % 0 mm 473 W/m2
16:25 14.4 °C 8.6 °C 996.8 hPa West 16.1 km/h 29 km/h 68 % 0 mm 431 W/m2
16:30 14.6 °C 9 °C 996.8 hPa West 16.1 km/h 25.7 km/h 69 % 0 mm 417 W/m2
16:35 14.7 °C 8.8 °C 996.5 hPa West 16.1 km/h 32.2 km/h 68 % 0 mm 104 W/m2
16:40 14.5 °C 8.4 °C 996.5 hPa West 22.5 km/h 40.2 km/h 67 % 0 mm 422 W/m2
16:45 14.6 °C 8.6 °C 996.5 hPa West 22.5 km/h 40.2 km/h 67 % 0 mm 272 W/m2
16:50 14.6 °C 8.3 °C 996.5 hPa West 20.9 km/h 33.8 km/h 66 % 0 mm 378 W/m2
16:55 14.6 °C 8.8 °C 996.5 hPa West 20.9 km/h 46.7 km/h 68 % 0 mm 346 W/m2
17:00 14.8 °C 9.2 °C 996.5 hPa West 17.7 km/h 46.7 km/h 69 % 0 mm 330 W/m2
17:05 14.8 °C 8.9 °C 996.5 hPa West 16.1 km/h 30.6 km/h 68 % 0 mm 316 W/m2
17:10 14.7 °C 8.6 °C 996.5 hPa West 19.3 km/h 41.8 km/h 67 % 0 mm 309 W/m2
17:15 14.6 °C 8.3 °C 996.8 hPa West 22.5 km/h 41.8 km/h 66 % 0 mm 297 W/m2
17:20 14.6 °C 8.3 °C 996.5 hPa West 19.3 km/h 35.4 km/h 66 % 0 mm 193 W/m2
17:25 14.3 °C 8.1 °C 996.5 hPa WNW 19.3 km/h 38.6 km/h 66 % 0 mm 265 W/m2
17:31 14.3 °C 8.3 °C 996.5 hPa WNW 17.7 km/h 38.6 km/h 67 % 0 mm 239 W/m2
17:36 14.3 °C 8.3 °C 996.5 hPa WNW 17.7 km/h 35.4 km/h 67 % 0 mm 244 W/m2
17:41 14.3 °C 8.1 °C 996.8 hPa WNW 19.3 km/h 35.4 km/h 66 % 0 mm 213 W/m2
17:46 14.2 °C 8.4 °C 996.5 hPa WNW 17.7 km/h 35.4 km/h 68 % 0 mm 225 W/m2
17:51 14.1 °C 8.5 °C 996.5 hPa WNW 14.5 km/h 29 km/h 69 % 0 mm 207 W/m2
17:56 14 °C 8.6 °C 996.5 hPa WNW 16.1 km/h 30.6 km/h 70 % 0 mm 178 W/m2
18:01 13.8 °C 8.6 °C 996.5 hPa West 16.1 km/h 32.2 km/h 71 % 0 mm 167 W/m2
18:06 13.8 °C 8.6 °C 996.5 hPa West 19.3 km/h 33.8 km/h 71 % 0 mm 158 W/m2
18:11 13.7 °C 8.6 °C 996.8 hPa West 19.3 km/h 33.8 km/h 71 % 0 mm 142 W/m2
18:16 13.6 °C 8.4 °C 996.5 hPa West 16.1 km/h 32.2 km/h 71 % 0 mm 125 W/m2
18:21 13.5 °C 8.3 °C 996.5 hPa WNW 17.7 km/h 33.8 km/h 71 % 0 mm 107 W/m2
18:26 13.4 °C 8.4 °C 996.5 hPa WNW 17.7 km/h 33.8 km/h 72 % 0 mm 97 W/m2
18:31 13.3 °C 8.3 °C 996.8 hPa WNW 16.1 km/h 30.6 km/h 72 % 0 mm 83 W/m2
18:36 13.2 °C 8.3 °C 996.5 hPa WNW 17.7 km/h 30.6 km/h 72 % 0 mm 35 W/m2
18:41 13 °C 8.3 °C 996.5 hPa WNW 14.5 km/h 24.1 km/h 73 % 0 mm 58 W/m2
18:46 12.9 °C 8.2 °C 996.5 hPa West 14.5 km/h 29 km/h 73 % 0 mm 44 W/m2
18:56 12.6 °C 8.1 °C 996.5 hPa West 14.5 km/h 24.1 km/h 74 % 0 mm 14 W/m2
19:01 12.4 °C 8.1 °C 996.5 hPa West 11.3 km/h 20.9 km/h 75 % 0 mm 12 W/m2
19:06 12.2 °C 8.1 °C 996.8 hPa West 11.3 km/h 20.9 km/h 76 % 0 mm 11 W/m2
19:11 12.1 °C 8 °C 996.5 hPa West 11.3 km/h 20.9 km/h 76 % 0 mm 9 W/m2
19:16 11.9 °C 8 °C 996.8 hPa West 11.3 km/h 22.5 km/h 77 % 0 mm 7 W/m2
19:21 11.8 °C 8.1 °C 996.8 hPa West 9.7 km/h 22.5 km/h 78 % 0 mm 5 W/m2
19:26 11.7 °C 8 °C 996.8 hPa West 8 km/h 14.5 km/h 78 % 0 mm 0 W/m2
19:31 11.6 °C 8.1 °C 996.8 hPa West 6.4 km/h 11.3 km/h 79 % 0 mm 0 W/m2
19:36 11.4 °C 7.9 °C 997.2 hPa West 4.8 km/h 9.7 km/h 79 % 0 mm 0 W/m2
19:41 11.4 °C 8.1 °C 997.2 hPa West 6.4 km/h 17.7 km/h 80 % 0 mm 0 W/m2
19:46 11.4 °C 8.1 °C 997.2 hPa West 9.7 km/h 19.3 km/h 80 % 0 mm 0 W/m2
19:51 11.4 °C 8.1 °C 997.2 hPa West 11.3 km/h 22.5 km/h 80 % 0 mm 0 W/m2
19:56 11.4 °C 7.9 °C 997.5 hPa West 11.3 km/h 22.5 km/h 79 % 0 mm 0 W/m2
20:01 11.3 °C 7.8 °C 997.5 hPa West 11.3 km/h 19.3 km/h 79 % 0 mm 0 W/m2
20:06 11.2 °C 7.7 °C 997.5 hPa West 11.3 km/h 19.3 km/h 79 % 0 mm 0 W/m2
20:12 11.1 °C 7.6 °C 997.5 hPa West 11.3 km/h 19.3 km/h 79 % 0 mm 0 W/m2
20:17 11 °C 7.7 °C 997.5 hPa West 11.3 km/h 19.3 km/h 80 % 0 mm 0 W/m2
20:22 10.9 °C 7.6 °C 997.9 hPa West 12.9 km/h 25.7 km/h 80 % 0 mm 0 W/m2
20:27 10.9 °C 7.6 °C 997.9 hPa West 11.3 km/h 25.7 km/h 80 % 0 mm 0 W/m2
20:32 10.8 °C 7.5 °C 997.9 hPa West 8 km/h 17.7 km/h 80 % 0 mm 0 W/m2
20:37 10.6 °C 7.3 °C 997.9 hPa West 6.4 km/h 14.5 km/h 80 % 0 mm 0 W/m2
20:42 10.5 °C 7.2 °C 997.9 hPa WNW 6.4 km/h 12.9 km/h 80 % 0 mm 0 W/m2
20:47 10.3 °C 7.2 °C 997.9 hPa West 6.4 km/h 17.7 km/h 81 % 0 mm 0 W/m2
20:52 10.3 °C 7.2 °C 997.9 hPa West 8 km/h 17.7 km/h 81 % 0 mm 0 W/m2
20:57 10.2 °C 7.1 °C 998.2 hPa West 8 km/h 19.3 km/h 81 % 0 mm 0 W/m2
21:02 10.1 °C 7.2 °C 998.2 hPa West 11.3 km/h 19.3 km/h 82 % 0 mm 0 W/m2
21:07 10 °C 7.1 °C 998.2 hPa West 9.7 km/h 19.3 km/h 82 % 0 mm 0 W/m2
21:12 9.9 °C 7.2 °C 997.9 hPa West 8 km/h 14.5 km/h 83 % 0 mm 0 W/m2
21:17 9.9 °C 7.2 °C 998.2 hPa West 6.4 km/h 12.9 km/h 83 % 0 mm 0 W/m2
21:22 9.8 °C 7.2 °C 998.2 hPa WNW 4.8 km/h 12.9 km/h 84 % 0 mm 0 W/m2
21:27 9.7 °C 7.1 °C 998.2 hPa WNW 4.8 km/h 11.3 km/h 84 % 0 mm 0 W/m2
21:32 9.7 °C 7.1 °C 998.2 hPa WNW 4.8 km/h 11.3 km/h 84 % 0 mm 0 W/m2
21:37 9.6 °C 7.2 °C 998.2 hPa WNW 4.8 km/h 9.7 km/h 85 % 0 mm 0 W/m2
21:42 9.5 °C 7.1 °C 998.2 hPa WNW 3.2 km/h 9.7 km/h 85 % 0 mm 0 W/m2
21:47 9.4 °C 7 °C 998.2 hPa West 1.6 km/h 9.7 km/h 85 % 0 mm 0 W/m2
21:52 9.3 °C 7.1 °C 998.2 hPa WSW 1.6 km/h 9.7 km/h 86 % 0 mm 0 W/m2
21:57 9.2 °C 7 °C 998.2 hPa WSW 1.6 km/h 8 km/h 86 % 0 mm 0 W/m2
22:02 9.1 °C 6.9 °C 998.2 hPa WSW 1.6 km/h 8 km/h 86 % 0 mm 0 W/m2
22:07 9 °C 6.9 °C 998.2 hPa WSW 1.6 km/h 8 km/h 87 % 0 mm 0 W/m2
22:12 8.9 °C 6.8 °C 998.2 hPa WSW 1.6 km/h 8 km/h 87 % 0 mm 0 W/m2
22:17 8.9 °C 6.8 °C 998.2 hPa West 1.6 km/h 11.3 km/h 87 % 0 mm 0 W/m2
22:22 8.8 °C 6.9 °C 998.2 hPa West 3.2 km/h 11.3 km/h 88 % 0 mm 0 W/m2
22:27 8.9 °C 7 °C 998.2 hPa West 6.4 km/h 16.1 km/h 88 % 0 mm 0 W/m2
22:32 9 °C 7.1 °C 998.2 hPa West 8 km/h 16.1 km/h 88 % 0 mm 0 W/m2
22:37 9 °C 7.1 °C 998.2 hPa West 8 km/h 16.1 km/h 88 % 0 mm 0 W/m2
22:42 9.1 °C 7.2 °C 998.2 hPa West 9.7 km/h 17.7 km/h 88 % 0 mm 0 W/m2
22:47 9.1 °C 7.4 °C 998.2 hPa West 9.7 km/h 17.7 km/h 89 % 0 mm 0 W/m2
22:52 9.1 °C 7.2 °C 998.5 hPa West 8 km/h 14.5 km/h 88 % 0 mm 0 W/m2
22:57 9.1 °C 7.2 °C 998.5 hPa West 6.4 km/h 16.1 km/h 88 % 0 mm 0 W/m2
23:02 9 °C 7.1 °C 998.5 hPa WNW 6.4 km/h 16.1 km/h 88 % 0 mm 0 W/m2
23:07 8.9 °C 7 °C 998.5 hPa WNW 6.4 km/h 12.9 km/h 88 % 0 mm 0 W/m2
23:12 8.8 °C 6.9 °C 998.5 hPa WNW 8 km/h 12.9 km/h 88 % 0 mm 0 W/m2
23:17 8.8 °C 6.9 °C 998.5 hPa WNW 8 km/h 12.9 km/h 88 % 0 mm 0 W/m2
23:22 8.7 °C 6.8 °C 998.5 hPa WNW 8 km/h 14.5 km/h 88 % 0 mm 0 W/m2
23:27 8.7 °C 6.8 °C 998.5 hPa WNW 6.4 km/h 14.5 km/h 88 % 0 mm 0 W/m2
23:32 8.6 °C 6.7 °C 998.5 hPa WNW 6.4 km/h 12.9 km/h 88 % 0 mm 0 W/m2
23:37 8.6 °C 6.9 °C 998.5 hPa WNW 8 km/h 14.5 km/h 89 % 0 mm 0 W/m2
23:42 8.6 °C 6.9 °C 998.5 hPa WNW 8 km/h 14.5 km/h 89 % 0 mm 0 W/m2
23:45 8.6 °C 6.9 °C 998.5 hPa WNW 8 km/h 14.5 km/h 89 % 0 mm 0 W/m2
23:50 8.6 °C 6.9 °C 998.5 hPa WNW 6.4 km/h 12.9 km/h 89 % 0 mm 0 W/m2
23:55 8.5 °C 6.8 °C 998.9 hPa WNW 4.8 km/h 11.3 km/h 89 % 0 mm 0 W/m2
Delerius-Weather
Compliments of Weather Underground - 2.25 mb

Data updates at regular intervals.